Time;durP1;ratioP1;P1;durP2;ratioP2;P2;SDS_P1;SDS_P2;PMS_P1;PMS_P2;Temp;Humidity;BMP_temperature;BMP_pressure;BME280_temperature;BME280_humidity;BME280_pressure;Samples;Min_cycle;Max_cycle;Signal;HPM_P1;HPM_P2
2023/08/17 00:01:09;;;;;;;7.40;4.30;;;;;;;;;;5076421;28;20024;-60
2023/08/17 00:03:35;;;;;;;6.95;5.28;;;;;;;;;;5076059;28;20060;-60
2023/08/17 00:06:01;;;;;;;5.65;4.70;;;;;;;;;;5076534;28;20027;-60
2023/08/17 00:08:27;;;;;;;5.50;4.75;;;;;;;;;;5076219;28;20021;-60
2023/08/17 00:10:53;;;;;;;6.65;4.95;;;;;;;;;;5077001;28;20032;-60
2023/08/17 00:13:18;;;;;;;5.03;4.38;;;;;;;;;;5076144;28;20085;-59
2023/08/17 00:15:45;;;;;;;6.72;4.97;;;;;;;;;;5076113;28;20046;-60
2023/08/17 00:18:12;;;;;;;5.63;4.90;;;;;;;;;;5076003;28;20033;-60
2023/08/17 00:20:37;;;;;;;6.35;4.85;;;;;;;;;;5076602;28;20347;-60
2023/08/17 00:23:03;;;;;;;6.00;5.13;;;;;;;;;;5075761;28;20107;-60
2023/08/17 00:25:29;;;;;;;6.40;5.80;;;;;;;;;;5075896;28;20028;-60
2023/08/17 00:27:55;;;;;;;7.72;6.10;;;;;;;;;;5075918;28;20046;-60
2023/08/17 00:30:21;;;;;;;6.15;4.75;;;;;;;;;;5076650;28;20023;-60
2023/08/17 00:32:47;;;;;;;6.78;6.05;;;;;;;;;;5076312;28;20103;-60
2023/08/17 00:35:13;;;;;;;7.50;5.10;;;;;;;;;;5076006;28;20033;-60
2023/08/17 00:37:39;;;;;;;7.15;4.88;;;;;;;;;;5074944;28;20036;-60
2023/08/17 00:40:06;;;;;;;5.35;4.78;;;;;;;;;;5076249;28;20470;-60
2023/08/17 00:42:32;;;;;;;7.32;5.35;;;;;;;;;;5075236;28;20047;-60
2023/08/17 00:44:57;;;;;;;7.35;5.93;;;;;;;;;;5075547;28;20359;-60
2023/08/17 00:47:25;;;;;;;5.95;4.90;;;;;;;;;;5075717;28;20024;-60
2023/08/17 00:49:51;;;;;;;5.45;4.75;;;;;;;;;;5075553;28;20030;-60
2023/08/17 00:52:17;;;;;;;5.07;4.57;;;;;;;;;;5075382;28;20021;-60
2023/08/17 00:54:43;;;;;;;11.15;5.03;;;;;;;;;;5075351;28;20031;-60
2023/08/17 00:57:10;;;;;;;7.25;5.30;;;;;;;;;;5074949;28;20100;-60
2023/08/17 00:59:36;;;;;;;5.20;4.55;;;;;;;;;;5075057;28;20374;-60
2023/08/17 01:02:02;;;;;;;6.30;4.93;;;;;;;;;;5075707;28;20027;-60
2023/08/17 01:04:28;;;;;;;6.78;5.10;;;;;;;;;;5075650;28;20350;-60
2023/08/17 01:06:54;;;;;;;7.22;5.75;;;;;;;;;;5075113;28;20026;-60
2023/08/17 01:09:20;;;;;;;6.25;5.43;;;;;;;;;;5075344;28;20086;-60
2023/08/17 01:11:52;;;;;;;7.07;6.13;;;;;;;;;;5075006;28;20024;-60
2023/08/17 01:14:27;;;;;;;7.75;6.85;;;;;;;;;;5075191;28;20028;-60
2023/08/17 01:17:01;;;;;;;7.47;6.72;;;;;;;;;;5074969;28;20050;-60
2023/08/17 01:19:27;;;;;;;7.63;6.88;;;;;;;;;;5075444;28;20094;-59
2023/08/17 01:21:57;;;;;;;8.75;6.22;;;;;;;;;;5074762;28;20024;-60
2023/08/17 01:24:23;;;;;;;7.60;6.90;;;;;;;;;;5075600;28;20052;-60
2023/08/17 01:26:49;;;;;;;8.43;7.57;;;;;;;;;;5074649;28;20059;-60
2023/08/17 01:29:15;;;;;;;7.00;6.30;;;;;;;;;;5075181;28;20447;-60
2023/08/17 01:31:50;;;;;;;8.75;7.65;;;;;;;;;;5075345;28;20028;-60
2023/08/17 01:34:19;;;;;;;7.57;6.75;;;;;;;;;;5074527;28;20347;-60
2023/08/17 01:36:49;;;;;;;9.02;7.32;;;;;;;;;;5074410;28;20108;-60
2023/08/17 01:39:16;;;;;;;8.68;7.78;;;;;;;;;;5074420;28;20028;-60
2023/08/17 01:41:42;;;;;;;9.48;8.05;;;;;;;;;;5074232;28;20079;-60
2023/08/17 01:44:08;;;;;;;11.52;9.02;;;;;;;;;;5074625;28;20115;-60
2023/08/17 01:46:34;;;;;;;10.27;9.13;;;;;;;;;;5074274;28;20051;-60
2023/08/17 01:49:01;;;;;;;11.85;9.45;;;;;;;;;;5075409;28;20374;-60
2023/08/17 01:51:27;;;;;;;11.23;9.13;;;;;;;;;;5074270;28;20031;-60
2023/08/17 01:53:53;;;;;;;10.27;8.75;;;;;;;;;;5074207;28;20033;-60
2023/08/17 01:56:19;;;;;;;11.55;8.70;;;;;;;;;;5074110;28;20036;-60
2023/08/17 01:58:45;;;;;;;10.93;9.82;;;;;;;;;;5074556;28;20025;-60
2023/08/17 02:01:11;;;;;;;10.52;9.35;;;;;;;;;;5074028;28;20023;-60
2023/08/17 02:03:37;;;;;;;9.85;8.82;;;;;;;;;;5074529;28;20362;-60
2023/08/17 02:06:03;;;;;;;13.15;9.15;;;;;;;;;;5074439;28;20020;-60
2023/08/17 02:08:29;;;;;;;10.25;9.23;;;;;;;;;;5074290;28;20429;-60
2023/08/17 02:10:55;;;;;;;11.90;9.50;;;;;;;;;;5074478;28;20016;-60
2023/08/17 02:13:21;;;;;;;14.77;11.77;;;;;;;;;;5074406;28;20447;-60
2023/08/17 02:15:47;;;;;;;12.27;10.98;;;;;;;;;;5073894;28;20025;-60
2023/08/17 02:18:13;;;;;;;12.55;10.00;;;;;;;;;;5073733;28;20038;-60
2023/08/17 02:20:39;;;;;;;13.68;11.93;;;;;;;;;;5074122;28;20111;-60
2023/08/17 02:23:05;;;;;;;11.60;10.38;;;;;;;;;;5074266;28;20019;-60
2023/08/17 02:25:35;;;;;;;11.32;10.15;;;;;;;;;;5074544;28;20025;-60
2023/08/17 02:28:02;;;;;;;11.15;10.07;;;;;;;;;;5074241;28;20359;-60
2023/08/17 02:30:28;;;;;;;12.20;10.80;;;;;;;;;;5074222;28;20375;-60
2023/08/17 02:32:54;;;;;;;13.80;11.07;;;;;;;;;;5073675;28;20033;-60
2023/08/17 02:35:20;;;;;;;12.75;10.55;;;;;;;;;;5074129;28;20031;-60
2023/08/17 02:37:46;;;;;;;12.07;10.55;;;;;;;;;;5073931;28;20451;-60
2023/08/17 02:40:12;;;;;;;10.20;9.18;;;;;;;;;;5073815;28;20382;-60
2023/08/17 02:42:39;;;;;;;13.20;11.80;;;;;;;;;;5073690;28;20467;-60
2023/08/17 02:45:06;;;;;;;10.43;9.43;;;;;;;;;;5073486;28;20462;-60
2023/08/17 02:47:32;;;;;;;9.77;8.77;;;;;;;;;;5074242;28;20039;-60
2023/08/17 02:49:57;;;;;;;13.70;9.60;;;;;;;;;;5074004;28;20021;-60
2023/08/17 02:52:23;;;;;;;13.90;10.60;;;;;;;;;;5073415;28;20039;-60
2023/08/17 02:54:49;;;;;;;10.98;9.88;;;;;;;;;;5073910;28;20037;-60
2023/08/17 02:57:15;;;;;;;12.93;10.75;;;;;;;;;;5073314;28;20378;-60
2023/08/17 02:59:41;;;;;;;15.38;11.85;;;;;;;;;;5074228;28;20024;-60
2023/08/17 03:02:07;;;;;;;12.05;10.20;;;;;;;;;;5076489;28;20028;-59
2023/08/17 03:04:33;;;;;;;11.15;10.00;;;;;;;;;;5078177;28;20351;-59
2023/08/17 03:06:59;;;;;;;12.05;10.80;;;;;;;;;;5077442;28;20370;-60
2023/08/17 03:09:25;;;;;;;11.95;10.70;;;;;;;;;;5077468;28;20108;-60
2023/08/17 03:11:52;;;;;;;12.82;10.85;;;;;;;;;;5077845;28;20024;-60
2023/08/17 03:14:18;;;;;;;16.13;10.02;;;;;;;;;;5077311;28;20021;-60
2023/08/17 03:16:44;;;;;;;13.55;11.13;;;;;;;;;;5076958;28;20493;-60
2023/08/17 03:19:11;;;;;;;11.93;10.38;;;;;;;;;;5077133;28;20057;-60
2023/08/17 03:21:37;;;;;;;11.27;10.13;;;;;;;;;;5077125;28;20107;-60
2023/08/17 03:24:03;;;;;;;14.32;10.65;;;;;;;;;;5077901;28;20098;-60
2023/08/17 03:26:29;;;;;;;11.55;10.40;;;;;;;;;;5077506;28;20359;-60
2023/08/17 03:28:55;;;;;;;11.30;9.77;;;;;;;;;;5077562;28;20029;-60
2023/08/17 03:31:21;;;;;;;15.32;10.95;;;;;;;;;;5077425;28;20020;-60
2023/08/17 03:33:48;;;;;;;11.45;9.77;;;;;;;;;;5076918;28;20107;-60
2023/08/17 03:36:14;;;;;;;10.75;9.65;;;;;;;;;;5076699;28;20024;-60
2023/08/17 03:38:40;;;;;;;12.55;11.25;;;;;;;;;;5077194;28;20038;-60
2023/08/17 03:41:06;;;;;;;11.82;10.57;;;;;;;;;;5076765;28;20052;-60
2023/08/17 03:43:32;;;;;;;11.50;10.23;;;;;;;;;;5076250;28;20040;-60
2023/08/17 03:45:58;;;;;;;11.80;10.55;;;;;;;;;;5077179;28;20065;-60
2023/08/17 03:48:24;;;;;;;12.60;11.15;;;;;;;;;;5077166;28;20467;-59
2023/08/17 03:50:54;;;;;;;12.32;10.52;;;;;;;;;;5077185;28;20134;-59
2023/08/17 03:53:20;;;;;;;13.85;10.52;;;;;;;;;;5076464;28;20020;-60
2023/08/17 03:55:49;;;;;;;11.02;9.55;;;;;;;;;;5077277;28;20040;-60
2023/08/17 03:58:15;;;;;;;11.80;10.48;;;;;;;;;;5076911;28;20024;-59
2023/08/17 04:00:42;;;;;;;12.43;10.43;;;;;;;;;;5076426;28;20023;-60
2023/08/17 04:03:08;;;;;;;10.55;9.50;;;;;;;;;;5076876;28;20043;-60
2023/08/17 04:05:34;;;;;;;12.30;10.95;;;;;;;;;;5076808;28;20526;-60
2023/08/17 04:08:02;;;;;;;10.82;9.80;;;;;;;;;;5076225;28;20017;-60
2023/08/17 04:10:28;;;;;;;13.57;12.18;;;;;;;;;;5076782;28;20075;-59
2023/08/17 04:12:54;;;;;;;13.75;11.27;;;;;;;;;;5075429;28;20393;-59
2023/08/17 04:15:20;;;;;;;13.30;11.90;;;;;;;;;;5076108;28;20056;-60
2023/08/17 04:17:46;;;;;;;14.40;12.88;;;;;;;;;;5076807;28;20358;-60
2023/08/17 04:20:12;;;;;;;13.50;12.10;;;;;;;;;;5076828;28;20021;-60
2023/08/17 04:22:37;;;;;;;12.27;10.95;;;;;;;;;;5076467;28;20056;-60
2023/08/17 04:25:05;;;;;;;13.88;12.50;;;;;;;;;;5075937;28;20363;-60
2023/08/17 04:27:31;;;;;;;13.35;11.95;;;;;;;;;;5075863;28;20036;-60
2023/08/17 04:29:57;;;;;;;15.27;12.88;;;;;;;;;;5076707;28;20024;-59
2023/08/17 04:32:23;;;;;;;16.35;13.13;;;;;;;;;;5076311;28;20382;-59
2023/08/17 04:34:49;;;;;;;15.57;13.38;;;;;;;;;;5075951;28;20017;-59
2023/08/17 04:37:15;;;;;;;14.82;13.35;;;;;;;;;;5075725;28;20035;-59
2023/08/17 04:39:43;;;;;;;13.18;11.80;;;;;;;;;;5075709;28;20052;-59
2023/08/17 04:42:09;;;;;;;13.23;11.93;;;;;;;;;;5075650;28;20143;-59
2023/08/17 04:44:35;;;;;;;14.55;12.43;;;;;;;;;;5076110;28;20059;-59
2023/08/17 04:47:01;;;;;;;15.25;13.18;;;;;;;;;;5075230;28;20056;-59
2023/08/17 04:49:27;;;;;;;14.60;13.07;;;;;;;;;;5076104;28;20028;-59
2023/08/17 04:51:53;;;;;;;13.77;11.23;;;;;;;;;;5075967;28;20032;-59
2023/08/17 04:54:19;;;;;;;15.60;14.00;;;;;;;;;;5075915;28;20478;-59
2023/08/17 04:56:45;;;;;;;18.65;13.05;;;;;;;;;;5076124;28;20020;-59
2023/08/17 04:59:11;;;;;;;15.63;11.30;;;;;;;;;;5075762;28;20028;-59
2023/08/17 05:01:37;;;;;;;14.52;12.82;;;;;;;;;;5075468;28;20440;-59
2023/08/17 05:04:03;;;;;;;13.65;12.25;;;;;;;;;;5074828;28;20107;-59
2023/08/17 05:06:29;;;;;;;15.90;12.73;;;;;;;;;;5075660;28;20101;-59
2023/08/17 05:08:55;;;;;;;13.18;11.57;;;;;;;;;;5075661;28;20443;-59
2023/08/17 05:11:21;;;;;;;13.73;12.32;;;;;;;;;;5075078;28;20043;-59
2023/08/17 05:13:47;;;;;;;12.27;10.82;;;;;;;;;;5075283;28;20451;-59
2023/08/17 05:16:13;;;;;;;11.75;10.52;;;;;;;;;;5075283;28;20031;-59
2023/08/17 05:18:39;;;;;;;14.93;13.00;;;;;;;;;;5074842;28;20038;-59
2023/08/17 05:21:06;;;;;;;12.82;11.52;;;;;;;;;;5075332;28;20013;-59
2023/08/17 05:23:32;;;;;;;11.30;10.10;;;;;;;;;;5075059;28;20021;-59
2023/08/17 05:25:58;;;;;;;11.77;9.88;;;;;;;;;;5074767;28;20508;-59
2023/08/17 05:28:24;;;;;;;13.65;10.30;;;;;;;;;;5075458;28;20078;-59
2023/08/17 05:30:50;;;;;;;12.55;10.80;;;;;;;;;;5075176;28;20078;-59
2023/08/17 05:33:16;;;;;;;13.23;11.93;;;;;;;;;;5075042;28;20504;-59
2023/08/17 05:35:42;;;;;;;12.68;11.35;;;;;;;;;;5075007;28;20029;-59
2023/08/17 05:38:09;;;;;;;11.15;10.00;;;;;;;;;;5074073;28;20035;-59
2023/08/17 05:40:35;;;;;;;13.52;10.20;;;;;;;;;;5075198;28;20402;-59
2023/08/17 05:43:01;;;;;;;14.00;11.25;;;;;;;;;;5074611;28;20390;-59
2023/08/17 05:45:27;;;;;;;12.13;10.93;;;;;;;;;;5074877;28;20017;-60
2023/08/17 05:47:53;;;;;;;14.80;10.75;;;;;;;;;;5074353;28;20117;-59
2023/08/17 05:50:19;;;;;;;11.90;10.57;;;;;;;;;;5074586;28;20043;-59
2023/08/17 05:52:45;;;;;;;14.98;12.95;;;;;;;;;;5074960;28;20025;-59
2023/08/17 05:55:11;;;;;;;12.18;10.98;;;;;;;;;;5073804;28;20511;-59
2023/08/17 05:57:37;;;;;;;11.40;10.20;;;;;;;;;;5074094;28;20036;-59
2023/08/17 06:00:04;;;;;;;11.20;10.10;;;;;;;;;;5074391;28;20044;-59
2023/08/17 06:02:29;;;;;;;12.25;10.95;;;;;;;;;;5073946;28;20078;-60
2023/08/17 06:04:55;;;;;;;15.07;11.70;;;;;;;;;;5073982;28;20029;-59
2023/08/17 06:07:21;;;;;;;14.73;12.57;;;;;;;;;;5073964;28;20028;-59
2023/08/17 06:09:47;;;;;;;12.90;11.70;;;;;;;;;;5056882;28;20029;-59
2023/08/17 06:12:13;;;;;;;13.52;12.15;;;;;;;;;;5073866;28;20025;-59
2023/08/17 06:14:40;;;;;;;14.20;11.90;;;;;;;;;;5073823;28;20103;-59
2023/08/17 06:17:06;;;;;;;14.07;12.15;;;;;;;;;;5073695;28;20021;-59
2023/08/17 06:19:32;;;;;;;12.15;10.90;;;;;;;;;;5074276;28;20075;-59
2023/08/17 06:21:58;;;;;;;11.05;9.82;;;;;;;;;;5074264;28;20073;-59
2023/08/17 06:24:24;;;;;;;14.43;10.68;;;;;;;;;;5074408;28;20028;-59
2023/08/17 06:26:50;;;;;;;12.05;10.93;;;;;;;;;;5073666;28;20036;-59
2023/08/17 06:29:16;;;;;;;12.48;11.23;;;;;;;;;;5074464;28;20109;-59
2023/08/17 06:31:41;;;;;;;14.45;11.60;;;;;;;;;;5073563;28;20013;-59
2023/08/17 06:34:07;;;;;;;12.82;10.75;;;;;;;;;;5073593;28;20024;-59
2023/08/17 06:36:33;;;;;;;15.20;10.48;;;;;;;;;;5073278;28;20025;-59
2023/08/17 06:38:59;;;;;;;14.38;11.98;;;;;;;;;;5074052;28;20140;-59
2023/08/17 06:41:26;;;;;;;12.30;10.65;;;;;;;;;;5073248;28;20078;-59
2023/08/17 06:43:52;;;;;;;10.18;8.98;;;;;;;;;;5074103;28;20040;-59
2023/08/17 06:46:18;;;;;;;12.07;10.93;;;;;;;;;;5073534;28;20028;-59
2023/08/17 06:48:44;;;;;;;13.70;11.35;;;;;;;;;;5074054;28;20029;-59
2023/08/17 06:51:10;;;;;;;13.35;11.90;;;;;;;;;;5073462;28;20050;-59
2023/08/17 06:53:36;;;;;;;13.35;12.02;;;;;;;;;;5073298;28;20445;-59
2023/08/17 06:56:02;;;;;;;13.30;10.68;;;;;;;;;;5072991;28;20052;-59
2023/08/17 06:58:28;;;;;;;11.25;10.13;;;;;;;;;;5073125;28;20047;-59
2023/08/17 07:00:54;;;;;;;12.30;8.75;;;;;;;;;;5073540;28;20029;-59
2023/08/17 07:03:20;;;;;;;12.95;10.07;;;;;;;;;;5073633;28;20342;-59
2023/08/17 07:05:46;;;;;;;10.75;9.57;;;;;;;;;;5073205;28;20021;-59
2023/08/17 07:08:13;;;;;;;12.52;11.23;;;;;;;;;;5072923;28;20039;-59
2023/08/17 07:10:39;;;;;;;10.95;9.88;;;;;;;;;;5073811;28;20117;-59
2023/08/17 07:13:05;;;;;;;11.98;10.70;;;;;;;;;;5073179;28;20078;-59
2023/08/17 07:15:31;;;;;;;12.60;11.27;;;;;;;;;;5073923;28;20025;-59
2023/08/17 07:17:57;;;;;;;13.18;10.63;;;;;;;;;;5073585;28;20037;-59
2023/08/17 07:20:23;;;;;;;13.00;10.73;;;;;;;;;;5073198;28;20458;-59
2023/08/17 07:22:49;;;;;;;12.98;11.32;;;;;;;;;;5073152;28;20040;-59
2023/08/17 07:25:15;;;;;;;13.57;12.15;;;;;;;;;;5072976;28;20160;-59
2023/08/17 07:27:42;;;;;;;14.02;11.70;;;;;;;;;;5072999;28;20032;-59
2023/08/17 07:30:08;;;;;;;13.75;10.77;;;;;;;;;;5073682;28;20029;-59
2023/08/17 07:32:34;;;;;;;13.80;9.85;;;;;;;;;;5073004;28;20051;-59
2023/08/17 07:35:00;;;;;;;11.20;10.05;;;;;;;;;;5072958;28;20021;-59
2023/08/17 07:37:33;;;;;;;11.85;10.57;;;;;;;;;;5072414;28;20024;-59
2023/08/17 07:39:59;;;;;;;12.68;10.45;;;;;;;;;;5073570;28;20024;-59
2023/08/17 07:42:25;;;;;;;12.65;11.35;;;;;;;;;;5073350;28;20044;-59
2023/08/17 07:44:54;;;;;;;16.70;11.73;;;;;;;;;;5072939;28;20029;-59
2023/08/17 07:47:20;;;;;;;13.45;12.05;;;;;;;;;;5074486;28;20056;-59
2023/08/17 07:49:46;;;;;;;12.15;10.85;;;;;;;;;;5076559;28;20090;-60
2023/08/17 07:52:12;;;;;;;13.07;11.68;;;;;;;;;;5076985;28;20025;-60
2023/08/17 07:54:38;;;;;;;13.10;11.70;;;;;;;;;;5076965;28;20032;-61
2023/08/17 07:57:04;;;;;;;12.02;10.50;;;;;;;;;;5076839;28;20350;-58
2023/08/17 07:59:30;;;;;;;13.30;11.90;;;;;;;;;;5076305;28;20078;-59
2023/08/17 08:01:56;;;;;;;13.00;11.63;;;;;;;;;;5076693;28;20021;-59
2023/08/17 08:04:22;;;;;;;15.07;12.60;;;;;;;;;;5076211;28;20082;-60
2023/08/17 08:06:48;;;;;;;12.48;11.18;;;;;;;;;;5077035;28;20024;-60
2023/08/17 08:09:14;;;;;;;14.82;13.15;;;;;;;;;;5076820;28;20028;-60
2023/08/17 08:11:40;;;;;;;12.40;10.80;;;;;;;;;;5075913;28;20012;-60
2023/08/17 08:14:06;;;;;;;11.63;10.43;;;;;;;;;;5076578;28;20025;-60
2023/08/17 08:16:32;;;;;;;19.33;11.90;;;;;;;;;;5076416;28;20032;-60
2023/08/17 08:18:58;;;;;;;10.85;9.68;;;;;;;;;;5076237;28;20475;-60
2023/08/17 08:21:24;;;;;;;16.85;10.07;;;;;;;;;;5075895;28;20028;-59
2023/08/17 08:23:50;;;;;;;10.40;9.30;;;;;;;;;;5075915;28;20029;-59
2023/08/17 08:26:16;;;;;;;13.40;10.15;;;;;;;;;;5075889;28;20443;-59
2023/08/17 08:28:42;;;;;;;11.77;9.40;;;;;;;;;;5076437;28;20020;-59
2023/08/17 08:31:08;;;;;;;11.55;8.95;;;;;;;;;;5076284;28;20498;-59
2023/08/17 08:33:33;;;;;;;9.80;8.85;;;;;;;;;;5075438;28;20105;-59
2023/08/17 08:35:59;;;;;;;12.57;9.35;;;;;;;;;;5075407;28;20028;-59
2023/08/17 08:38:25;;;;;;;9.45;8.35;;;;;;;;;;5075459;28;20024;-59
2023/08/17 08:40:51;;;;;;;9.88;8.25;;;;;;;;;;5076328;28;20023;-59
2023/08/17 08:43:18;;;;;;;10.10;7.97;;;;;;;;;;5075393;28;20072;-59
2023/08/17 08:45:44;;;;;;;8.20;7.28;;;;;;;;;;5075443;28;20031;-59
2023/08/17 08:48:11;;;;;;;10.05;8.18;;;;;;;;;;5075552;28;20107;-59
2023/08/17 08:50:39;;;;;;;7.68;6.90;;;;;;;;;;5075993;28;20094;-58
2023/08/17 08:53:11;;;;;;;7.55;6.75;;;;;;;;;;5074978;28;20114;-58
2023/08/17 08:55:49;;;;;;;7.45;6.63;;;;;;;;;;5075759;28;20076;-58
2023/08/17 08:58:18;;;;;;;7.60;6.40;;;;;;;;;;5074595;28;20493;-58
2023/08/17 09:00:47;;;;;;;8.15;6.10;;;;;;;;;;5075587;28;20107;-58
2023/08/17 09:03:16;;;;;;;6.25;5.07;;;;;;;;;;5075171;28;20073;-58
2023/08/17 09:05:43;;;;;;;6.47;5.88;;;;;;;;;;5075649;28;20095;-59
2023/08/17 09:08:10;;;;;;;6.88;6.20;;;;;;;;;;5075136;28;20036;-59
2023/08/17 09:10:36;;;;;;;7.53;6.35;;;;;;;;;;5075691;28;20348;-59
2023/08/17 09:13:02;;;;;;;5.60;5.10;;;;;;;;;;5074607;28;20035;-59
2023/08/17 09:15:28;;;;;;;6.30;5.70;;;;;;;;;;5074895;28;20024;-59
2023/08/17 09:17:53;;;;;;;6.88;6.18;;;;;;;;;;5074770;28;20039;-59
2023/08/17 09:20:36;;;;;;;7.65;5.82;;;;;;;;;;5075122;28;20367;-59
2023/08/17 09:23:04;;;;;;;4.95;4.45;;;;;;;;;;5075072;28;20013;-59
2023/08/17 09:25:34;;;;;;;4.68;4.22;;;;;;;;;;5074568;28;20025;-59
2023/08/17 09:28:03;;;;;;;5.95;4.45;;;;;;;;;;5074830;28;20024;-59
2023/08/17 09:30:28;;;;;;;6.05;5.20;;;;;;;;;;5074587;28;20055;-59
2023/08/17 09:32:54;;;;;;;5.22;4.72;;;;;;;;;;5074639;28;20466;-59
2023/08/17 09:35:20;;;;;;;7.28;5.32;;;;;;;;;;5074817;28;20051;-59
2023/08/17 09:37:48;;;;;;;7.55;4.82;;;;;;;;;;5074308;28;20090;-59
2023/08/17 09:40:15;;;;;;;5.78;4.55;;;;;;;;;;5074778;28;20071;-59
2023/08/17 09:42:41;;;;;;;6.13;4.63;;;;;;;;;;5074409;28;20079;-59
2023/08/17 09:45:07;;;;;;;5.65;4.45;;;;;;;;;;5074187;28;20052;-59
2023/08/17 09:47:33;;;;;;;5.25;4.75;;;;;;;;;;5073971;28;20062;-59
2023/08/17 09:49:59;;;;;;;6.55;4.82;;;;;;;;;;5074243;28;20463;-59
2023/08/17 09:52:25;;;;;;;5.47;4.53;;;;;;;;;;5074327;28;20028;-59
2023/08/17 09:54:52;;;;;;;5.80;4.30;;;;;;;;;;5074213;28;20013;-59
2023/08/17 09:57:18;;;;;;;5.75;4.68;;;;;;;;;;5074165;28;20375;-59
2023/08/17 09:59:45;;;;;;;4.72;3.38;;;;;;;;;;5074582;28;20047;-59
2023/08/17 10:02:23;;;;;;;5.15;4.10;;;;;;;;;;5074555;28;20025;-59
2023/08/17 10:04:50;;;;;;;4.35;3.95;;;;;;;;;;5074109;28;20074;-59
2023/08/17 10:07:19;;;;;;;5.57;4.55;;;;;;;;;;5074256;28;20482;-59
2023/08/17 10:09:46;;;;;;;5.97;4.43;;;;;;;;;;5074163;28;20433;-59
2023/08/17 10:12:15;;;;;;;4.50;3.92;;;;;;;;;;5074045;28;20025;-59
2023/08/17 10:14:46;;;;;;;5.53;4.50;;;;;;;;;;5074733;28;20199;-59
2023/08/17 10:17:14;;;;;;;4.93;4.18;;;;;;;;;;5074592;28;20079;-59
2023/08/17 10:19:57;;;;;;;5.03;4.53;;;;;;;;;;5074049;28;20028;-59
2023/08/17 10:22:55;;;;;;;4.03;3.38;;;;;;;;;;5073702;28;20414;-59
2023/08/17 10:25:22;;;;;;;4.28;3.88;;;;;;;;;;5019016;28;20119;-59
2023/08/17 10:27:51;;;;;;;5.15;4.07;;;;;;;;;;5073600;28;20060;-59
2023/08/17 10:30:17;;;;;;;4.63;3.92;;;;;;;;;;5074228;28;20025;-59
2023/08/17 10:32:46;;;;;;;4.65;3.63;;;;;;;;;;5074330;28;20021;-59
2023/08/17 10:35:13;;;;;;;4.50;3.85;;;;;;;;;;5073634;28;20017;-59
2023/08/17 10:37:39;;;;;;;5.15;4.05;;;;;;;;;;5073122;28;20475;-59
2023/08/17 10:40:06;;;;;;;4.50;4.10;;;;;;;;;;5074104;28;20115;-59
2023/08/17 10:42:33;;;;;;;4.53;4.10;;;;;;;;;;5073513;28;20044;-59
2023/08/17 10:45:01;;;;;;;4.90;4.22;;;;;;;;;;5074285;28;20028;-59
2023/08/17 10:47:27;;;;;;;4.90;3.67;;;;;;;;;;5073416;28;20020;-59
2023/08/17 10:49:59;;;;;;;4.53;4.13;;;;;;;;;;5074074;28;20028;-59
2023/08/17 10:52:35;;;;;;;7.28;4.88;;;;;;;;;;5073810;28;20081;-59
2023/08/17 10:55:05;;;;;;;4.70;4.28;;;;;;;;;;5074078;28;20032;-59
2023/08/17 10:57:38;;;;;;;4.85;4.07;;;;;;;;;;5073554;28;20033;-59
2023/08/17 11:00:26;;;;;;;5.45;3.90;;;;;;;;;;5073041;28;20048;-59
2023/08/17 11:02:54;;;;;;;4.47;3.65;;;;;;;;;;5073380;28;20028;-59
2023/08/17 11:05:38;;;;;;;4.13;3.72;;;;;;;;;;5073152;28;20058;-59
2023/08/17 11:08:05;;;;;;;4.97;4.47;;;;;;;;;;5073148;28;20035;-59
2023/08/17 11:10:31;;;;;;;5.38;4.07;;;;;;;;;;5073800;28;20027;-59
2023/08/17 11:13:01;;;;;;;4.82;4.18;;;;;;;;;;5073264;28;20033;-59
2023/08/17 11:15:37;;;;;;;4.85;4.43;;;;;;;;;;5073276;28;20479;-59
2023/08/17 11:18:03;;;;;;;5.13;4.60;;;;;;;;;;5073676;28;20028;-59
2023/08/17 11:20:29;;;;;;;6.65;4.60;;;;;;;;;;5073082;28;20027;-59
2023/08/17 11:22:55;;;;;;;4.72;4.05;;;;;;;;;;5075734;28;20025;-59
2023/08/17 11:25:21;;;;;;;6.47;5.85;;;;;;;;;;5077558;28;20029;-60
2023/08/17 11:27:47;;;;;;;8.25;4.30;;;;;;;;;;5077583;28;20028;-59
2023/08/17 11:30:13;;;;;;;4.20;3.80;;;;;;;;;;5077130;28;20016;-59
2023/08/17 11:32:39;;;;;;;4.50;4.10;;;;;;;;;;5076900;28;20028;-59
2023/08/17 11:35:05;;;;;;;5.15;4.13;;;;;;;;;;5077723;28;20358;-59
2023/08/17 11:37:32;;;;;;;7.22;4.10;;;;;;;;;;5076634;28;20020;-59
2023/08/17 11:39:58;;;;;;;4.65;3.70;;;;;;;;;;5076889;28;20053;-59
2023/08/17 11:42:24;;;;;;;5.15;4.65;;;;;;;;;;5077235;28;20044;-60
2023/08/17 11:44:50;;;;;;;4.35;3.95;;;;;;;;;;5076701;28;20044;-59
2023/08/17 11:47:16;;;;;;;5.47;4.88;;;;;;;;;;5076318;28;20021;-59
2023/08/17 11:49:42;;;;;;;5.25;4.75;;;;;;;;;;5076643;28;20056;-59
2023/08/17 11:52:11;;;;;;;5.65;5.03;;;;;;;;;;5058821;28;20036;-59
2023/08/17 11:54:40;;;;;;;7.13;5.72;;;;;;;;;;5076482;28;20025;-59
2023/08/17 11:57:06;;;;;;;6.20;5.60;;;;;;;;;;5076361;28;20111;-59
2023/08/17 11:59:33;;;;;;;7.38;6.68;;;;;;;;;;5076700;28;20427;-59
2023/08/17 12:01:59;;;;;;;5.90;5.03;;;;;;;;;;5076311;28;20020;-60
2023/08/17 12:04:25;;;;;;;5.93;5.35;;;;;;;;;;5076404;28;20028;-59
2023/08/17 12:06:51;;;;;;;6.82;5.38;;;;;;;;;;5075650;28;20024;-59
2023/08/17 12:09:18;;;;;;;7.53;6.25;;;;;;;;;;5076761;28;20052;-59
2023/08/17 12:11:46;;;;;;;7.35;5.88;;;;;;;;;;5076132;28;20031;-59
2023/08/17 12:14:12;;;;;;;6.40;5.68;;;;;;;;;;5076713;28;20060;-59
2023/08/17 12:16:50;;;;;;;6.45;5.63;;;;;;;;;;5076618;28;20028;-59
2023/08/17 12:19:16;;;;;;;8.00;6.63;;;;;;;;;;5075965;28;20454;-59
2023/08/17 12:21:43;;;;;;;8.05;6.80;;;;;;;;;;5076056;28;20036;-59
2023/08/17 12:24:12;;;;;;;8.40;6.75;;;;;;;;;;5076514;28;20025;-59
2023/08/17 12:26:43;;;;;;;6.93;6.05;;;;;;;;;;5076251;28;20083;-59
2023/08/17 12:29:09;;;;;;;6.03;5.40;;;;;;;;;;5075893;28;20039;-60
2023/08/17 12:31:35;;;;;;;7.82;6.10;;;;;;;;;;5075522;28;20025;-61
2023/08/17 12:34:00;;;;;;;6.68;5.70;;;;;;;;;;5075222;28;20025;-59
2023/08/17 12:36:26;;;;;;;7.30;5.45;;;;;;;;;;5076460;28;20040;-59
2023/08/17 12:38:52;;;;;;;5.93;5.32;;;;;;;;;;5076011;28;20029;-59
2023/08/17 12:41:19;;;;;;;5.90;5.22;;;;;;;;;;5075745;28;20028;-59
2023/08/17 12:43:45;;;;;;;6.43;5.82;;;;;;;;;;5075585;28;20486;-59
2023/08/17 12:46:11;;;;;;;8.85;5.63;;;;;;;;;;5076296;28;20021;-59
2023/08/17 12:48:37;;;;;;;6.05;5.13;;;;;;;;;;5075495;28;20040;-59
2023/08/17 12:51:03;;;;;;;6.22;5.63;;;;;;;;;;5058539;28;20047;-60
2023/08/17 12:53:29;;;;;;;6.47;5.90;;;;;;;;;;5075965;28;20367;-60
2023/08/17 12:55:55;;;;;;;8.45;6.38;;;;;;;;;;5075346;28;20039;-61
2023/08/17 12:58:21;;;;;;;10.90;6.72;;;;;;;;;;5075832;28;20028;-61
2023/08/17 13:00:50;;;;;;;7.90;6.32;;;;;;;;;;5075607;28;20078;-61
2023/08/17 13:03:15;;;;;;;7.05;6.35;;;;;;;;;;5075319;28;20020;-61
2023/08/17 13:05:42;;;;;;;6.20;5.60;;;;;;;;;;5075123;28;20055;-61
2023/08/17 13:08:09;;;;;;;7.22;6.28;;;;;;;;;;5075484;28;20032;-61
2023/08/17 13:10:35;;;;;;;6.53;5.90;;;;;;;;;;5075586;28;20017;-61
2023/08/17 13:13:00;;;;;;;6.57;5.78;;;;;;;;;;5075055;28;20026;-61
2023/08/17 13:15:27;;;;;;;7.50;6.53;;;;;;;;;;5075566;28;20417;-61
2023/08/17 13:17:53;;;;;;;7.30;5.40;;;;;;;;;;5074992;28;20039;-61
2023/08/17 13:20:18;;;;;;;6.18;5.57;;;;;;;;;;5075473;28;20111;-61
2023/08/17 13:22:44;;;;;;;6.28;5.28;;;;;;;;;;5075325;28;20021;-61
2023/08/17 13:25:10;;;;;;;8.30;5.53;;;;;;;;;;5074888;28;20021;-61
2023/08/17 13:27:36;;;;;;;5.35;4.88;;;;;;;;;;5075262;28;20123;-61
2023/08/17 13:30:02;;;;;;;6.45;5.63;;;;;;;;;;5075048;28;20186;-61
2023/08/17 13:32:28;;;;;;;8.55;5.15;;;;;;;;;;5075392;28;20385;-61
2023/08/17 13:34:54;;;;;;;7.13;5.18;;;;;;;;;;5074619;28;20027;-61
2023/08/17 13:37:20;;;;;;;4.78;4.28;;;;;;;;;;5074455;28;20017;-61
2023/08/17 13:39:47;;;;;;;5.63;5.13;;;;;;;;;;5075350;28;20336;-61
2023/08/17 13:42:13;;;;;;;4.95;4.47;;;;;;;;;;5074539;28;20135;-61
2023/08/17 13:44:39;;;;;;;4.82;4.30;;;;;;;;;;5074204;28;20124;-61
2023/08/17 13:47:05;;;;;;;5.55;4.82;;;;;;;;;;5074845;28;20024;-61
2023/08/17 13:49:31;;;;;;;4.95;4.18;;;;;;;;;;5074290;28;20025;-61
2023/08/17 13:51:57;;;;;;;5.15;4.40;;;;;;;;;;5074348;28;20020;-61
2023/08/17 13:54:23;;;;;;;5.05;4.25;;;;;;;;;;5074181;28;20141;-61
2023/08/17 13:56:49;;;;;;;6.75;4.55;;;;;;;;;;5074732;28;20124;-61
2023/08/17 13:59:15;;;;;;;10.93;5.03;;;;;;;;;;5074224;28;20466;-61
2023/08/17 14:01:41;;;;;;;5.85;5.25;;;;;;;;;;5074349;28;20028;-61
2023/08/17 14:04:14;;;;;;;9.05;4.97;;;;;;;;;;5074050;28;20446;-61
2023/08/17 14:06:40;;;;;;;5.63;4.63;;;;;;;;;;5074457;28;20024;-61
2023/08/17 14:09:06;;;;;;;6.25;5.60;;;;;;;;;;5074088;28;20455;-61
2023/08/17 14:11:32;;;;;;;5.45;4.10;;;;;;;;;;5074474;28;20013;-61
2023/08/17 14:13:57;;;;;;;5.13;4.63;;;;;;;;;;5074147;28;20417;-61
2023/08/17 14:16:23;;;;;;;5.68;4.97;;;;;;;;;;5074197;28;20047;-61
2023/08/17 14:18:49;;;;;;;5.78;4.88;;;;;;;;;;5074122;28;20025;-61
2023/08/17 14:21:15;;;;;;;7.45;4.95;;;;;;;;;;5073877;28;20074;-61
2023/08/17 14:23:41;;;;;;;6.72;5.95;;;;;;;;;;5073781;28;20031;-61
2023/08/17 14:26:07;;;;;;;6.18;5.57;;;;;;;;;;5074030;28;20017;-61
2023/08/17 14:28:33;;;;;;;5.63;5.05;;;;;;;;;;5073969;28;20028;-61